sensor_id;sensor_type;location;lat;lon;timestamp;P1;durP1;ratioP1;P2;durP2;ratioP2
49241;SDS011;35079;52.704;13.814;2022-12-24T00:00:31;22.48;;;11.63;;
49241;SDS011;35079;52.704;13.814;2022-12-24T00:02:58;19.58;;;11.85;;
49241;SDS011;35079;52.704;13.814;2022-12-24T00:05:24;17.05;;;10.65;;
49241;SDS011;35079;52.704;13.814;2022-12-24T00:07:50;21.35;;;10.95;;
49241;SDS011;35079;52.704;13.814;2022-12-24T00:10:16;18.98;;;10.73;;
49241;SDS011;35079;52.704;13.814;2022-12-24T00:12:41;18.65;;;10.75;;
49241;SDS011;35079;52.704;13.814;2022-12-24T00:15:07;22.33;;;10.90;;
49241;SDS011;35079;52.704;13.814;2022-12-24T00:17:33;21.65;;;10.73;;
49241;SDS011;35079;52.704;13.814;2022-12-24T00:19:59;20.48;;;10.80;;
49241;SDS011;35079;52.704;13.814;2022-12-24T00:22:24;16.45;;;9.55;;
49241;SDS011;35079;52.704;13.814;2022-12-24T00:24:50;20.08;;;11.70;;
49241;SDS011;35079;52.704;13.814;2022-12-24T00:27:16;21.50;;;11.25;;
49241;SDS011;35079;52.704;13.814;2022-12-24T00:29:41;20.17;;;11.35;;
49241;SDS011;35079;52.704;13.814;2022-12-24T00:32:07;19.55;;;10.93;;
49241;SDS011;35079;52.704;13.814;2022-12-24T00:34:37;22.23;;;11.25;;
49241;SDS011;35079;52.704;13.814;2022-12-24T00:37:03;23.00;;;11.57;;
49241;SDS011;35079;52.704;13.814;2022-12-24T00:39:30;22.90;;;11.80;;
49241;SDS011;35079;52.704;13.814;2022-12-24T00:41:56;22.38;;;12.27;;
49241;SDS011;35079;52.704;13.814;2022-12-24T00:44:21;23.10;;;12.70;;
49241;SDS011;35079;52.704;13.814;2022-12-24T00:46:47;24.52;;;12.32;;
49241;SDS011;35079;52.704;13.814;2022-12-24T00:49:13;24.38;;;12.55;;
49241;SDS011;35079;52.704;13.814;2022-12-24T00:51:39;24.48;;;13.05;;
49241;SDS011;35079;52.704;13.814;2022-12-24T00:54:05;25.50;;;12.43;;
49241;SDS011;35079;52.704;13.814;2022-12-24T00:56:31;24.67;;;13.70;;
49241;SDS011;35079;52.704;13.814;2022-12-24T00:58:57;22.48;;;12.60;;
49241;SDS011;35079;52.704;13.814;2022-12-24T01:01:22;25.92;;;12.73;;
49241;SDS011;35079;52.704;13.814;2022-12-24T01:03:49;25.52;;;12.23;;
49241;SDS011;35079;52.704;13.814;2022-12-24T01:06:19;24.08;;;12.52;;
49241;SDS011;35079;52.704;13.814;2022-12-24T01:08:45;27.08;;;12.05;;
49241;SDS011;35079;52.704;13.814;2022-12-24T01:11:13;22.75;;;13.02;;
49241;SDS011;35079;52.704;13.814;2022-12-24T01:13:39;28.48;;;13.13;;
49241;SDS011;35079;52.704;13.814;2022-12-24T01:16:12;24.52;;;12.75;;
49241;SDS011;35079;52.704;13.814;2022-12-24T01:18:39;29.13;;;13.52;;
49241;SDS011;35079;52.704;13.814;2022-12-24T01:21:05;28.58;;;14.45;;
49241;SDS011;35079;52.704;13.814;2022-12-24T01:23:31;27.63;;;13.43;;
49241;SDS011;35079;52.704;13.814;2022-12-24T01:26:00;32.47;;;14.52;;
49241;SDS011;35079;52.704;13.814;2022-12-24T01:28:27;28.77;;;13.80;;
49241;SDS011;35079;52.704;13.814;2022-12-24T01:30:53;29.00;;;14.05;;
49241;SDS011;35079;52.704;13.814;2022-12-24T01:33:19;23.63;;;13.27;;
49241;SDS011;35079;52.704;13.814;2022-12-24T01:35:45;25.40;;;13.10;;
49241;SDS011;35079;52.704;13.814;2022-12-24T01:38:10;28.42;;;14.15;;
49241;SDS011;35079;52.704;13.814;2022-12-24T01:40:37;26.42;;;13.27;;
49241;SDS011;35079;52.704;13.814;2022-12-24T01:43:23;23.95;;;13.00;;
49241;SDS011;35079;52.704;13.814;2022-12-24T01:45:59;23.00;;;12.93;;
49241;SDS011;35079;52.704;13.814;2022-12-24T01:51:27;30.80;;;13.50;;
49241;SDS011;35079;52.704;13.814;2022-12-24T01:54:03;26.50;;;13.43;;
49241;SDS011;35079;52.704;13.814;2022-12-24T01:56:32;24.05;;;12.52;;
49241;SDS011;35079;52.704;13.814;2022-12-24T01:59:02;22.40;;;12.75;;
49241;SDS011;35079;52.704;13.814;2022-12-24T02:01:30;22.25;;;13.02;;
49241;SDS011;35079;52.704;13.814;2022-12-24T02:03:56;25.35;;;13.00;;
49241;SDS011;35079;52.704;13.814;2022-12-24T02:06:21;25.92;;;12.70;;
49241;SDS011;35079;52.704;13.814;2022-12-24T02:08:48;26.50;;;12.77;;
49241;SDS011;35079;52.704;13.814;2022-12-24T02:11:18;24.40;;;12.77;;
49241;SDS011;35079;52.704;13.814;2022-12-24T02:13:47;21.95;;;12.55;;
49241;SDS011;35079;52.704;13.814;2022-12-24T02:24:48;18.90;;;10.77;;
49241;SDS011;35079;52.704;13.814;2022-12-24T02:38:31;22.38;;;11.95;;
49241;SDS011;35079;52.704;13.814;2022-12-24T02:41:06;21.10;;;11.85;;
49241;SDS011;35079;52.704;13.814;2022-12-24T02:43:36;21.98;;;12.57;;
49241;SDS011;35079;52.704;13.814;2022-12-24T02:46:13;24.58;;;12.27;;
49241;SDS011;35079;52.704;13.814;2022-12-24T02:48:43;20.23;;;12.15;;
49241;SDS011;35079;52.704;13.814;2022-12-24T02:51:11;25.90;;;13.25;;
49241;SDS011;35079;52.704;13.814;2022-12-24T02:53:37;22.83;;;12.68;;
49241;SDS011;35079;52.704;13.814;2022-12-24T02:59:01;27.27;;;12.82;;
49241;SDS011;35079;52.704;13.814;2022-12-24T03:01:37;27.30;;;13.07;;
49241;SDS011;35079;52.704;13.814;2022-12-24T03:04:22;23.60;;;12.73;;
49241;SDS011;35079;52.704;13.814;2022-12-24T03:12:49;22.90;;;12.00;;
49241;SDS011;35079;52.704;13.814;2022-12-24T03:15:22;23.75;;;12.25;;
49241;SDS011;35079;52.704;13.814;2022-12-24T03:17:49;21.77;;;13.02;;
49241;SDS011;35079;52.704;13.814;2022-12-24T03:20:20;25.73;;;13.55;;
49241;SDS011;35079;52.704;13.814;2022-12-24T03:22:50;24.55;;;12.63;;
49241;SDS011;35079;52.704;13.814;2022-12-24T03:25:16;23.85;;;12.75;;
49241;SDS011;35079;52.704;13.814;2022-12-24T03:27:41;24.30;;;12.40;;
49241;SDS011;35079;52.704;13.814;2022-12-24T03:30:15;27.55;;;13.75;;
49241;SDS011;35079;52.704;13.814;2022-12-24T03:32:42;24.52;;;13.63;;
49241;SDS011;35079;52.704;13.814;2022-12-24T03:35:10;24.33;;;13.32;;
49241;SDS011;35079;52.704;13.814;2022-12-24T03:37:36;25.92;;;12.88;;
49241;SDS011;35079;52.704;13.814;2022-12-24T03:40:02;23.85;;;13.55;;
49241;SDS011;35079;52.704;13.814;2022-12-24T03:42:29;21.10;;;12.40;;
49241;SDS011;35079;52.704;13.814;2022-12-24T03:44:54;25.17;;;13.13;;
49241;SDS011;35079;52.704;13.814;2022-12-24T03:47:20;25.15;;;13.57;;
49241;SDS011;35079;52.704;13.814;2022-12-24T03:49:46;26.55;;;14.02;;
49241;SDS011;35079;52.704;13.814;2022-12-24T03:52:11;25.15;;;13.13;;
49241;SDS011;35079;52.704;13.814;2022-12-24T03:54:37;22.30;;;12.57;;
49241;SDS011;35079;52.704;13.814;2022-12-24T03:57:03;24.75;;;13.10;;
49241;SDS011;35079;52.704;13.814;2022-12-24T03:59:28;25.48;;;12.45;;
49241;SDS011;35079;52.704;13.814;2022-12-24T04:01:54;24.92;;;12.50;;
49241;SDS011;35079;52.704;13.814;2022-12-24T04:04:20;24.33;;;12.75;;
49241;SDS011;35079;52.704;13.814;2022-12-24T04:06:45;24.27;;;12.23;;
49241;SDS011;35079;52.704;13.814;2022-12-24T04:09:11;21.88;;;12.73;;
49241;SDS011;35079;52.704;13.814;2022-12-24T04:11:36;23.20;;;13.38;;
49241;SDS011;35079;52.704;13.814;2022-12-24T04:14:02;22.92;;;12.50;;
49241;SDS011;35079;52.704;13.814;2022-12-24T04:16:28;23.95;;;12.43;;
49241;SDS011;35079;52.704;13.814;2022-12-24T04:18:53;24.15;;;12.98;;
49241;SDS011;35079;52.704;13.814;2022-12-24T04:21:19;22.85;;;11.82;;
49241;SDS011;35079;52.704;13.814;2022-12-24T04:23:45;25.20;;;12.45;;
49241;SDS011;35079;52.704;13.814;2022-12-24T04:26:12;28.17;;;13.45;;
49241;SDS011;35079;52.704;13.814;2022-12-24T04:28:38;29.15;;;12.57;;
49241;SDS011;35079;52.704;13.814;2022-12-24T04:31:06;25.65;;;12.82;;
49241;SDS011;35079;52.704;13.814;2022-12-24T04:33:40;22.90;;;12.48;;
49241;SDS011;35079;52.704;13.814;2022-12-24T04:36:06;24.42;;;12.18;;
49241;SDS011;35079;52.704;13.814;2022-12-24T04:38:34;22.13;;;12.18;;
49241;SDS011;35079;52.704;13.814;2022-12-24T04:41:00;27.15;;;13.25;;
49241;SDS011;35079;52.704;13.814;2022-12-24T04:43:29;21.63;;;12.88;;
49241;SDS011;35079;52.704;13.814;2022-12-24T04:45:55;23.75;;;12.32;;
49241;SDS011;35079;52.704;13.814;2022-12-24T04:48:27;25.60;;;13.32;;
49241;SDS011;35079;52.704;13.814;2022-12-24T04:50:53;24.80;;;12.60;;
49241;SDS011;35079;52.704;13.814;2022-12-24T04:53:18;26.67;;;13.43;;
49241;SDS011;35079;52.704;13.814;2022-12-24T04:55:44;26.83;;;13.23;;
49241;SDS011;35079;52.704;13.814;2022-12-24T04:58:10;29.48;;;13.10;;
49241;SDS011;35079;52.704;13.814;2022-12-24T05:00:39;25.55;;;12.65;;
49241;SDS011;35079;52.704;13.814;2022-12-24T05:03:05;25.63;;;12.65;;
49241;SDS011;35079;52.704;13.814;2022-12-24T05:05:31;24.05;;;12.40;;
49241;SDS011;35079;52.704;13.814;2022-12-24T05:07:56;26.23;;;12.15;;
49241;SDS011;35079;52.704;13.814;2022-12-24T05:10:22;25.15;;;11.88;;
49241;SDS011;35079;52.704;13.814;2022-12-24T05:12:48;24.55;;;12.15;;
49241;SDS011;35079;52.704;13.814;2022-12-24T05:15:13;25.20;;;12.23;;
49241;SDS011;35079;52.704;13.814;2022-12-24T05:17:39;21.20;;;11.13;;
49241;SDS011;35079;52.704;13.814;2022-12-24T05:20:05;22.30;;;11.75;;
49241;SDS011;35079;52.704;13.814;2022-12-24T05:22:31;22.52;;;11.57;;
49241;SDS011;35079;52.704;13.814;2022-12-24T05:25:15;21.23;;;11.33;;
49241;SDS011;35079;52.704;13.814;2022-12-24T05:27:59;19.73;;;11.10;;
49241;SDS011;35079;52.704;13.814;2022-12-24T05:30:25;23.50;;;11.38;;
49241;SDS011;35079;52.704;13.814;2022-12-24T05:32:50;23.55;;;11.23;;
49241;SDS011;35079;52.704;13.814;2022-12-24T05:35:16;19.40;;;10.70;;
49241;SDS011;35079;52.704;13.814;2022-12-24T05:37:42;19.95;;;10.90;;
49241;SDS011;35079;52.704;13.814;2022-12-24T05:40:07;24.52;;;11.23;;
49241;SDS011;35079;52.704;13.814;2022-12-24T05:42:33;21.17;;;10.43;;
49241;SDS011;35079;52.704;13.814;2022-12-24T05:44:59;24.50;;;10.50;;
49241;SDS011;35079;52.704;13.814;2022-12-24T05:47:25;18.83;;;11.30;;
49241;SDS011;35079;52.704;13.814;2022-12-24T05:49:50;20.40;;;10.88;;
49241;SDS011;35079;52.704;13.814;2022-12-24T05:52:16;20.52;;;11.30;;
49241;SDS011;35079;52.704;13.814;2022-12-24T05:54:42;22.77;;;11.32;;
49241;SDS011;35079;52.704;13.814;2022-12-24T05:57:07;19.25;;;11.05;;
49241;SDS011;35079;52.704;13.814;2022-12-24T05:59:33;21.13;;;11.52;;
49241;SDS011;35079;52.704;13.814;2022-12-24T06:01:59;19.70;;;10.95;;
49241;SDS011;35079;52.704;13.814;2022-12-24T06:04:24;21.70;;;11.35;;
49241;SDS011;35079;52.704;13.814;2022-12-24T06:06:50;21.40;;;11.27;;
49241;SDS011;35079;52.704;13.814;2022-12-24T06:09:16;20.15;;;11.18;;
49241;SDS011;35079;52.704;13.814;2022-12-24T06:11:41;20.30;;;10.55;;
49241;SDS011;35079;52.704;13.814;2022-12-24T06:14:07;22.45;;;11.77;;
49241;SDS011;35079;52.704;13.814;2022-12-24T06:16:33;20.98;;;11.25;;
49241;SDS011;35079;52.704;13.814;2022-12-24T06:18:58;19.38;;;11.35;;
49241;SDS011;35079;52.704;13.814;2022-12-24T06:21:24;20.70;;;11.43;;
49241;SDS011;35079;52.704;13.814;2022-12-24T06:23:50;23.50;;;11.63;;
49241;SDS011;35079;52.704;13.814;2022-12-24T06:26:17;21.15;;;11.35;;
49241;SDS011;35079;52.704;13.814;2022-12-24T06:28:44;23.55;;;11.68;;
49241;SDS011;35079;52.704;13.814;2022-12-24T06:31:12;17.58;;;10.68;;
49241;SDS011;35079;52.704;13.814;2022-12-24T06:33:40;21.02;;;11.20;;
49241;SDS011;35079;52.704;13.814;2022-12-24T06:36:06;23.08;;;10.82;;
49241;SDS011;35079;52.704;13.814;2022-12-24T06:38:33;19.20;;;10.15;;
49241;SDS011;35079;52.704;13.814;2022-12-24T06:40:58;19.70;;;10.88;;
49241;SDS011;35079;52.704;13.814;2022-12-24T06:43:24;21.35;;;10.65;;
49241;SDS011;35079;52.704;13.814;2022-12-24T06:45:50;19.35;;;10.90;;
49241;SDS011;35079;52.704;13.814;2022-12-24T06:48:16;21.17;;;10.65;;
49241;SDS011;35079;52.704;13.814;2022-12-24T06:50:42;22.50;;;11.18;;
49241;SDS011;35079;52.704;13.814;2022-12-24T06:53:08;24.25;;;10.65;;
49241;SDS011;35079;52.704;13.814;2022-12-24T06:55:34;26.35;;;11.18;;
49241;SDS011;35079;52.704;13.814;2022-12-24T06:58:00;27.80;;;10.88;;
49241;SDS011;35079;52.704;13.814;2022-12-24T07:00:27;24.08;;;11.40;;
49241;SDS011;35079;52.704;13.814;2022-12-24T07:02:52;24.13;;;11.13;;
49241;SDS011;35079;52.704;13.814;2022-12-24T07:05:18;18.85;;;10.45;;
49241;SDS011;35079;52.704;13.814;2022-12-24T07:07:43;22.10;;;10.65;;
49241;SDS011;35079;52.704;13.814;2022-12-24T07:10:10;22.75;;;10.95;;
49241;SDS011;35079;52.704;13.814;2022-12-24T07:12:39;24.50;;;11.27;;
49241;SDS011;35079;52.704;13.814;2022-12-24T07:15:05;23.20;;;11.32;;
49241;SDS011;35079;52.704;13.814;2022-12-24T07:17:31;26.63;;;11.65;;
49241;SDS011;35079;52.704;13.814;2022-12-24T07:19:57;22.17;;;11.57;;
49241;SDS011;35079;52.704;13.814;2022-12-24T07:22:22;28.35;;;11.55;;
49241;SDS011;35079;52.704;13.814;2022-12-24T07:24:48;22.63;;;10.93;;
49241;SDS011;35079;52.704;13.814;2022-12-24T07:27:14;23.17;;;11.70;;
49241;SDS011;35079;52.704;13.814;2022-12-24T07:29:40;29.02;;;11.70;;
49241;SDS011;35079;52.704;13.814;2022-12-24T07:32:05;24.40;;;11.82;;
49241;SDS011;35079;52.704;13.814;2022-12-24T07:34:32;27.27;;;11.43;;
49241;SDS011;35079;52.704;13.814;2022-12-24T07:36:57;21.88;;;10.93;;
49241;SDS011;35079;52.704;13.814;2022-12-24T07:39:23;20.98;;;10.70;;
49241;SDS011;35079;52.704;13.814;2022-12-24T07:41:49;23.73;;;10.63;;
49241;SDS011;35079;52.704;13.814;2022-12-24T07:44:15;20.48;;;10.68;;
49241;SDS011;35079;52.704;13.814;2022-12-24T07:46:41;29.17;;;12.25;;
49241;SDS011;35079;52.704;13.814;2022-12-24T07:49:07;22.48;;;11.07;;
49241;SDS011;35079;52.704;13.814;2022-12-24T07:51:33;19.13;;;10.43;;
49241;SDS011;35079;52.704;13.814;2022-12-24T07:53:59;22.45;;;11.05;;
49241;SDS011;35079;52.704;13.814;2022-12-24T07:56:24;20.25;;;10.18;;
49241;SDS011;35079;52.704;13.814;2022-12-24T07:58:50;20.05;;;10.50;;
49241;SDS011;35079;52.704;13.814;2022-12-24T08:01:16;23.67;;;10.95;;
49241;SDS011;35079;52.704;13.814;2022-12-24T08:03:42;21.92;;;10.02;;
49241;SDS011;35079;52.704;13.814;2022-12-24T08:06:09;22.33;;;11.25;;
49241;SDS011;35079;52.704;13.814;2022-12-24T08:08:35;20.65;;;10.30;;
49241;SDS011;35079;52.704;13.814;2022-12-24T08:11:02;23.45;;;11.23;;
49241;SDS011;35079;52.704;13.814;2022-12-24T08:13:31;21.00;;;10.57;;
49241;SDS011;35079;52.704;13.814;2022-12-24T08:15:57;25.95;;;11.00;;
49241;SDS011;35079;52.704;13.814;2022-12-24T08:18:23;21.65;;;10.15;;
49241;SDS011;35079;52.704;13.814;2022-12-24T08:20:49;20.27;;;10.43;;
49241;SDS011;35079;52.704;13.814;2022-12-24T08:23:15;21.00;;;10.13;;
49241;SDS011;35079;52.704;13.814;2022-12-24T08:25:45;20.17;;;10.63;;
49241;SDS011;35079;52.704;13.814;2022-12-24T08:28:12;21.02;;;10.38;;
49241;SDS011;35079;52.704;13.814;2022-12-24T08:30:39;20.13;;;10.75;;
49241;SDS011;35079;52.704;13.814;2022-12-24T08:33:05;19.55;;;10.30;;
49241;SDS011;35079;52.704;13.814;2022-12-24T08:35:31;25.48;;;10.48;;
49241;SDS011;35079;52.704;13.814;2022-12-24T08:37:57;22.90;;;11.00;;
49241;SDS011;35079;52.704;13.814;2022-12-24T08:40:23;20.25;;;10.55;;
49241;SDS011;35079;52.704;13.814;2022-12-24T08:42:48;20.25;;;10.38;;
49241;SDS011;35079;52.704;13.814;2022-12-24T08:45:14;22.90;;;11.13;;
49241;SDS011;35079;52.704;13.814;2022-12-24T08:47:40;20.17;;;10.60;;
49241;SDS011;35079;52.704;13.814;2022-12-24T08:50:06;22.25;;;10.15;;
49241;SDS011;35079;52.704;13.814;2022-12-24T08:52:34;20.17;;;10.65;;
49241;SDS011;35079;52.704;13.814;2022-12-24T08:55:00;20.08;;;10.20;;
49241;SDS011;35079;52.704;13.814;2022-12-24T08:57:26;17.98;;;9.95;;
49241;SDS011;35079;52.704;13.814;2022-12-24T08:59:51;17.15;;;9.05;;
49241;SDS011;35079;52.704;13.814;2022-12-24T09:02:18;19.38;;;9.80;;
49241;SDS011;35079;52.704;13.814;2022-12-24T09:04:43;20.33;;;10.85;;
49241;SDS011;35079;52.704;13.814;2022-12-24T09:07:09;18.63;;;9.10;;
49241;SDS011;35079;52.704;13.814;2022-12-24T09:09:35;19.08;;;9.65;;
49241;SDS011;35079;52.704;13.814;2022-12-24T09:12:03;17.40;;;8.73;;
49241;SDS011;35079;52.704;13.814;2022-12-24T09:14:32;14.85;;;8.93;;
49241;SDS011;35079;52.704;13.814;2022-12-24T09:16:58;16.33;;;9.32;;
49241;SDS011;35079;52.704;13.814;2022-12-24T09:19:24;14.45;;;8.65;;
49241;SDS011;35079;52.704;13.814;2022-12-24T09:21:49;17.73;;;8.43;;
49241;SDS011;35079;52.704;13.814;2022-12-24T09:24:15;14.05;;;8.13;;
49241;SDS011;35079;52.704;13.814;2022-12-24T09:26:41;14.40;;;7.50;;
49241;SDS011;35079;52.704;13.814;2022-12-24T09:29:07;14.13;;;7.78;;
49241;SDS011;35079;52.704;13.814;2022-12-24T09:31:34;14.35;;;7.75;;
49241;SDS011;35079;52.704;13.814;2022-12-24T09:33:59;15.18;;;8.20;;
49241;SDS011;35079;52.704;13.814;2022-12-24T09:36:25;11.02;;;7.50;;
49241;SDS011;35079;52.704;13.814;2022-12-24T09:38:51;12.57;;;7.65;;
49241;SDS011;35079;52.704;13.814;2022-12-24T09:47:26;13.13;;;7.05;;
49241;SDS011;35079;52.704;13.814;2022-12-24T09:53:14;12.20;;;7.55;;
49241;SDS011;35079;52.704;13.814;2022-12-24T09:55:48;14.50;;;7.53;;
49241;SDS011;35079;52.704;13.814;2022-12-24T09:58:23;11.23;;;7.03;;
49241;SDS011;35079;52.704;13.814;2022-12-24T10:00:53;10.30;;;6.82;;
49241;SDS011;35079;52.704;13.814;2022-12-24T10:03:21;15.20;;;7.35;;
49241;SDS011;35079;52.704;13.814;2022-12-24T10:08:42;13.52;;;7.45;;
49241;SDS011;35079;52.704;13.814;2022-12-24T10:11:18;17.13;;;7.90;;
49241;SDS011;35079;52.704;13.814;2022-12-24T10:17:11;10.35;;;6.65;;
49241;SDS011;35079;52.704;13.814;2022-12-24T10:19:22;12.25;;;6.90;;
49241;SDS011;35079;52.704;13.814;2022-12-24T10:27:54;10.18;;;6.38;;
49241;SDS011;35079;52.704;13.814;2022-12-24T10:30:23;12.85;;;6.57;;
49241;SDS011;35079;52.704;13.814;2022-12-24T10:32:50;11.43;;;6.80;;
49241;SDS011;35079;52.704;13.814;2022-12-24T10:35:22;15.50;;;7.22;;
49241;SDS011;35079;52.704;13.814;2022-12-24T10:37:51;8.57;;;5.80;;
49241;SDS011;35079;52.704;13.814;2022-12-24T10:43:15;12.10;;;6.45;;
49241;SDS011;35079;52.704;13.814;2022-12-24T10:45:45;10.05;;;6.75;;
49241;SDS011;35079;52.704;13.814;2022-12-24T10:48:15;9.80;;;6.45;;
49241;SDS011;35079;52.704;13.814;2022-12-24T10:50:51;10.80;;;6.97;;
49241;SDS011;35079;52.704;13.814;2022-12-24T10:53:35;14.73;;;7.07;;
49241;SDS011;35079;52.704;13.814;2022-12-24T10:56:28;9.65;;;6.38;;
49241;SDS011;35079;52.704;13.814;2022-12-24T10:58:54;11.95;;;6.35;;
49241;SDS011;35079;52.704;13.814;2022-12-24T11:01:20;9.48;;;6.22;;
49241;SDS011;35079;52.704;13.814;2022-12-24T11:04:14;10.13;;;6.45;;
49241;SDS011;35079;52.704;13.814;2022-12-24T11:06:59;7.90;;;5.28;;
49241;SDS011;35079;52.704;13.814;2022-12-24T11:11:53;8.88;;;5.40;;
49241;SDS011;35079;52.704;13.814;2022-12-24T11:14:20;8.32;;;5.95;;
49241;SDS011;35079;52.704;13.814;2022-12-24T11:16:51;10.90;;;6.20;;
49241;SDS011;35079;52.704;13.814;2022-12-24T11:19:21;10.25;;;6.05;;
49241;SDS011;35079;52.704;13.814;2022-12-24T11:21:57;10.02;;;5.70;;
49241;SDS011;35079;52.704;13.814;2022-12-24T11:24:30;8.98;;;5.93;;
49241;SDS011;35079;52.704;13.814;2022-12-24T11:29:46;10.07;;;5.68;;
49241;SDS011;35079;52.704;13.814;2022-12-24T11:32:16;8.15;;;5.53;;
49241;SDS011;35079;52.704;13.814;2022-12-24T11:34:46;7.50;;;5.27;;
49241;SDS011;35079;52.704;13.814;2022-12-24T11:37:21;6.85;;;4.85;;
49241;SDS011;35079;52.704;13.814;2022-12-24T11:39:49;8.00;;;5.05;;
49241;SDS011;35079;52.704;13.814;2022-12-24T11:42:35;7.93;;;5.55;;
49241;SDS011;35079;52.704;13.814;2022-12-24T11:45:07;7.60;;;5.45;;
49241;SDS011;35079;52.704;13.814;2022-12-24T11:47:45;9.60;;;5.20;;
49241;SDS011;35079;52.704;13.814;2022-12-24T11:50:30;12.65;;;7.05;;
49241;SDS011;35079;52.704;13.814;2022-12-24T11:58:36;8.75;;;5.78;;
49241;SDS011;35079;52.704;13.814;2022-12-24T12:01:41;7.85;;;5.30;;
49241;SDS011;35079;52.704;13.814;2022-12-24T12:04:20;9.27;;;5.32;;
49241;SDS011;35079;52.704;13.814;2022-12-24T12:06:54;7.97;;;5.43;;
49241;SDS011;35079;52.704;13.814;2022-12-24T12:11:54;6.97;;;5.25;;
49241;SDS011;35079;52.704;13.814;2022-12-24T12:14:59;8.73;;;6.25;;
49241;SDS011;35079;52.704;13.814;2022-12-24T12:17:26;9.02;;;6.32;;
49241;SDS011;35079;52.704;13.814;2022-12-24T12:20:15;8.73;;;6.03;;
49241;SDS011;35079;52.704;13.814;2022-12-24T12:23:02;7.95;;;5.80;;
49241;SDS011;35079;52.704;13.814;2022-12-24T12:26:06;8.20;;;5.70;;
49241;SDS011;35079;52.704;13.814;2022-12-24T12:31:22;7.75;;;4.80;;
49241;SDS011;35079;52.704;13.814;2022-12-24T12:37:39;9.52;;;5.15;;
49241;SDS011;35079;52.704;13.814;2022-12-24T12:39:53;14.85;;;5.82;;
49241;SDS011;35079;52.704;13.814;2022-12-24T12:50:02;8.25;;;5.03;;
49241;SDS011;35079;52.704;13.814;2022-12-24T12:58:10;12.38;;;7.75;;
49241;SDS011;35079;52.704;13.814;2022-12-24T13:00:41;10.05;;;6.80;;
49241;SDS011;35079;52.704;13.814;2022-12-24T13:06:38;13.52;;;8.18;;
49241;SDS011;35079;52.704;13.814;2022-12-24T13:09:30;11.07;;;7.47;;
49241;SDS011;35079;52.704;13.814;2022-12-24T13:25:42;14.40;;;8.48;;
49241;SDS011;35079;52.704;13.814;2022-12-24T13:28:14;15.50;;;9.18;;
49241;SDS011;35079;52.704;13.814;2022-12-24T13:30:40;15.50;;;9.10;;
49241;SDS011;35079;52.704;13.814;2022-12-24T13:33:12;14.60;;;8.65;;
49241;SDS011;35079;52.704;13.814;2022-12-24T13:36:11;13.20;;;8.50;;
49241;SDS011;35079;52.704;13.814;2022-12-24T13:49:43;14.90;;;8.60;;
49241;SDS011;35079;52.704;13.814;2022-12-24T13:54:44;15.40;;;9.10;;
49241;SDS011;35079;52.704;13.814;2022-12-24T13:57:30;16.45;;;8.27;;
49241;SDS011;35079;52.704;13.814;2022-12-24T14:08:09;13.13;;;8.10;;
49241;SDS011;35079;52.704;13.814;2022-12-24T14:10:39;20.70;;;10.10;;
49241;SDS011;35079;52.704;13.814;2022-12-24T14:16:06;16.52;;;9.57;;
49241;SDS011;35079;52.704;13.814;2022-12-24T14:18:39;17.35;;;9.63;;
49241;SDS011;35079;52.704;13.814;2022-12-24T14:21:13;15.32;;;9.43;;
49241;SDS011;35079;52.704;13.814;2022-12-24T14:23:54;15.15;;;9.90;;
49241;SDS011;35079;52.704;13.814;2022-12-24T14:26:24;17.63;;;9.23;;
49241;SDS011;35079;52.704;13.814;2022-12-24T14:28:56;16.48;;;10.27;;
49241;SDS011;35079;52.704;13.814;2022-12-24T14:31:27;15.50;;;9.93;;
49241;SDS011;35079;52.704;13.814;2022-12-24T14:34:04;17.30;;;9.15;;
49241;SDS011;35079;52.704;13.814;2022-12-24T14:36:35;17.35;;;9.90;;
49241;SDS011;35079;52.704;13.814;2022-12-24T14:39:01;21.33;;;10.60;;
49241;SDS011;35079;52.704;13.814;2022-12-24T14:41:52;19.88;;;10.65;;
49241;SDS011;35079;52.704;13.814;2022-12-24T14:44:43;18.95;;;10.60;;
49241;SDS011;35079;52.704;13.814;2022-12-24T14:52:58;18.25;;;10.75;;
49241;SDS011;35079;52.704;13.814;2022-12-24T14:55:41;17.75;;;10.35;;
49241;SDS011;35079;52.704;13.814;2022-12-24T15:01:01;19.35;;;11.68;;
49241;SDS011;35079;52.704;13.814;2022-12-24T15:06:09;19.40;;;10.98;;
49241;SDS011;35079;52.704;13.814;2022-12-24T15:08:44;16.50;;;10.35;;
49241;SDS011;35079;52.704;13.814;2022-12-24T15:11:14;32.22;;;11.02;;
49241;SDS011;35079;52.704;13.814;2022-12-24T15:13:43;23.25;;;11.52;;
49241;SDS011;35079;52.704;13.814;2022-12-24T15:16:12;20.17;;;11.45;;
49241;SDS011;35079;52.704;13.814;2022-12-24T15:18:47;23.85;;;11.07;;
49241;SDS011;35079;52.704;13.814;2022-12-24T15:21:20;41.95;;;12.30;;
49241;SDS011;35079;52.704;13.814;2022-12-24T15:23:54;22.42;;;12.05;;
49241;SDS011;35079;52.704;13.814;2022-12-24T15:26:21;24.70;;;12.38;;
49241;SDS011;35079;52.704;13.814;2022-12-24T15:28:57;20.08;;;10.93;;
49241;SDS011;35079;52.704;13.814;2022-12-24T15:31:25;21.38;;;11.15;;
49241;SDS011;35079;52.704;13.814;2022-12-24T15:33:53;21.98;;;11.27;;
49241;SDS011;35079;52.704;13.814;2022-12-24T15:36:30;23.67;;;12.52;;
49241;SDS011;35079;52.704;13.814;2022-12-24T15:38:57;22.20;;;12.65;;
49241;SDS011;35079;52.704;13.814;2022-12-24T15:41:27;29.13;;;13.18;;
49241;SDS011;35079;52.704;13.814;2022-12-24T15:44:26;20.98;;;11.88;;
49241;SDS011;35079;52.704;13.814;2022-12-24T15:47:00;24.48;;;12.00;;
49241;SDS011;35079;52.704;13.814;2022-12-24T15:49:28;24.05;;;13.18;;
49241;SDS011;35079;52.704;13.814;2022-12-24T15:52:07;25.80;;;13.50;;
49241;SDS011;35079;52.704;13.814;2022-12-24T15:57:12;21.90;;;13.23;;
49241;SDS011;35079;52.704;13.814;2022-12-24T15:59:49;23.98;;;13.13;;
49241;SDS011;35079;52.704;13.814;2022-12-24T16:05:26;28.83;;;13.82;;
49241;SDS011;35079;52.704;13.814;2022-12-24T16:08:17;26.92;;;14.23;;
49241;SDS011;35079;52.704;13.814;2022-12-24T16:10:47;31.73;;;14.00;;
49241;SDS011;35079;52.704;13.814;2022-12-24T16:13:17;30.08;;;14.45;;
49241;SDS011;35079;52.704;13.814;2022-12-24T16:15:48;25.52;;;12.60;;
49241;SDS011;35079;52.704;13.814;2022-12-24T16:19:05;29.58;;;12.85;;
49241;SDS011;35079;52.704;13.814;2022-12-24T16:21:07;29.33;;;13.90;;
49241;SDS011;35079;52.704;13.814;2022-12-24T16:23:38;29.70;;;14.30;;
49241;SDS011;35079;52.704;13.814;2022-12-24T16:26:15;29.63;;;15.20;;
49241;SDS011;35079;52.704;13.814;2022-12-24T16:28:40;27.02;;;13.23;;
49241;SDS011;35079;52.704;13.814;2022-12-24T16:31:06;32.42;;;14.63;;
49241;SDS011;35079;52.704;13.814;2022-12-24T16:33:39;27.88;;;13.18;;
49241;SDS011;35079;52.704;13.814;2022-12-24T16:36:04;27.77;;;14.30;;
49241;SDS011;35079;52.704;13.814;2022-12-24T16:38:30;28.25;;;13.88;;
49241;SDS011;35079;52.704;13.814;2022-12-24T16:41:16;35.50;;;14.02;;
49241;SDS011;35079;52.704;13.814;2022-12-24T16:43:41;23.65;;;14.40;;
49241;SDS011;35079;52.704;13.814;2022-12-24T16:46:16;34.25;;;14.90;;
49241;SDS011;35079;52.704;13.814;2022-12-24T16:48:43;30.58;;;14.48;;
49241;SDS011;35079;52.704;13.814;2022-12-24T16:51:11;24.02;;;13.45;;
49241;SDS011;35079;52.704;13.814;2022-12-24T16:53:36;28.98;;;15.27;;